Robin DR400/180



Le DR 400/180 Régent, quadriplace de 180 CV.

Caractéristiques :
Moteur Lycoming 180 cv
Consommation : 35 l/h
Autonomie : 4 h 30 + la sécurité
Vitesse de croisière : 120 kts

Equipement :
En plus de l’équipement minimal
Horizon artificiel
VHF
VOR - Radiocompas
Transpondeur
Balise de détresse portable
GPS
Horamètre

Rapport de pesée (cliquez) ** Date du rapport 09/01/2015 ** - Attention ! Ce rapport de pesée est mis en ligne à TITRE INFORMATIF UNIQUEMENT. Vous devez en cas de besoin, consulter le rapport de pesée joint au carnet de route, seul document faisant foi en la matière.

Le DR400/180

Webcam :

Nuit aéronautique

14 Nov 2018

Heure locale,
pour LFDL uniquement.

Lever du soleil aéronautique :07:33
Lever du soleil :08:03
Coucher du soleil :17:24
Coucher du soleil aéronautique :17:54

Metar

LFBI :
2018/11/14 16:00
LFBI 141600Z AUTO 15003KT CAVOK 18/12 Q1022 NOSIG
LFBI :
Poitiers, France (LFBI) 46-35N 000-19E 120M
Nov 14, 2018 - 11:00 AM EST / 2018.11.14 1600 UTC
Wind: from the SSE (150 degrees) at 3 MPH (3 KT):0
Visibility: greater than 7 mile(s):0
Temperature: 64 F (18 C)
Dew Point: 53 F (12 C)
Relative Humidity: 67%
Pressure (altimeter): 30.18 in. Hg (1022 hPa)
ob: LFBI 141600Z AUTO 15003KT CAVOK 18/12 Q1022 NOSIG
cycle: 16

Afficher le metar d'une autre station :
Code OACI :

Aéroclub de Loudun


Bellevue
86200 Loudun


Contacter Michel Richez (président)

  • Mail:michel.richez@free.fr
  • Tel:09-50-38-02-06
  • Mobile:06-52-73-09-01



agrandir le plan

Newsletter

Mon e-mail :